createdAt,value
2023-01-22T00:00:01.682Z,7.18
2023-01-22T00:05:06.112Z,7.15
2023-01-22T00:10:02.437Z,7.32
2023-01-22T00:14:56.384Z,9.27
2023-01-22T00:19:50.706Z,7.28
2023-01-22T00:24:45.327Z,9.00
2023-01-22T00:29:39.482Z,9.57
2023-01-22T00:34:32.457Z,7.82
2023-01-22T00:39:26.091Z,8.55
2023-01-22T00:44:19.688Z,8.63
2023-01-22T00:49:14.104Z,9.57
2023-01-22T00:54:08.613Z,11.00
2023-01-22T00:59:02.069Z,9.85
2023-01-22T01:03:55.710Z,10.88
2023-01-22T01:08:49.219Z,10.38
2023-01-22T01:13:43.348Z,9.60
2023-01-22T01:18:37.978Z,10.05
2023-01-22T01:23:33.194Z,9.40
2023-01-22T01:28:28.864Z,11.07
2023-01-22T01:33:22.184Z,10.75
2023-01-22T01:38:15.465Z,10.32
2023-01-22T01:43:16.422Z,11.35
2023-01-22T01:48:32.428Z,10.40
2023-01-22T01:53:26.238Z,12.70
2023-01-22T01:58:22.640Z,9.38
2023-01-22T02:03:15.887Z,10.13
2023-01-22T02:08:10.630Z,9.23
2023-01-22T02:13:10.878Z,9.30
2023-01-22T02:18:04.676Z,8.73
2023-01-22T02:22:57.896Z,8.80
2023-01-22T02:27:51.588Z,9.15
2023-01-22T02:32:47.719Z,9.65
2023-01-22T02:37:41.688Z,8.65
2023-01-22T02:42:35.329Z,9.35
2023-01-22T02:47:28.659Z,9.38
2023-01-22T02:52:22.355Z,8.38
2023-01-22T02:57:16.200Z,6.47
2023-01-22T03:02:11.602Z,4.65
2023-01-22T03:07:05.163Z,5.70
2023-01-22T03:11:59.206Z,5.32
2023-01-22T03:17:14.681Z,5.25
2023-01-22T03:22:08.530Z,6.05
2023-01-22T03:27:01.821Z,4.97
2023-01-22T03:31:56.960Z,6.18
2023-01-22T03:36:49.840Z,4.60
2023-01-22T03:41:42.700Z,5.72
2023-01-22T03:46:36.578Z,5.60
2023-01-22T03:51:30.602Z,5.10
2023-01-22T03:56:24.454Z,5.60
2023-01-22T04:01:23.674Z,5.70
2023-01-22T04:06:18.990Z,5.85
2023-01-22T04:11:13.642Z,6.47
2023-01-22T04:16:08.607Z,7.30
2023-01-22T04:21:28.595Z,6.28
2023-01-22T04:26:25.202Z,7.07
2023-01-22T04:31:20.378Z,6.90
2023-01-22T04:36:29.110Z,6.43
2023-01-22T04:41:22.832Z,5.53
2023-01-22T04:46:16.917Z,5.53
2023-01-22T04:51:10.410Z,4.85
2023-01-22T04:56:05.569Z,5.28
2023-01-22T05:00:58.529Z,4.63
2023-01-22T05:05:52.108Z,4.80
2023-01-22T05:10:45.864Z,5.35
2023-01-22T05:15:45.794Z,5.57
2023-01-22T05:20:40.468Z,5.95
2023-01-22T05:25:35.179Z,5.60
2023-01-22T05:30:29.613Z,5.70
2023-01-22T05:35:42.861Z,6.47
2023-01-22T05:40:37.253Z,7.07
2023-01-22T05:45:30.775Z,5.53
2023-01-22T05:50:49.257Z,5.00
2023-01-22T05:55:42.465Z,4.93
2023-01-22T06:00:36.578Z,4.47
2023-01-22T06:05:33.578Z,4.28
2023-01-22T06:10:32.840Z,4.88
2023-01-22T06:15:27.292Z,3.90
2023-01-22T06:20:29.898Z,3.78
2023-01-22T06:25:23.087Z,3.50
2023-01-22T06:30:30.224Z,3.05
2023-01-22T06:35:26.604Z,3.45
2023-01-22T06:40:20.178Z,3.38
2023-01-22T06:45:16.252Z,3.67
2023-01-22T06:50:15.338Z,4.63
2023-01-22T06:55:11.003Z,3.95
2023-01-22T07:00:05.930Z,4.78
2023-01-22T07:04:59.558Z,4.03
2023-01-22T07:09:53.847Z,3.92
2023-01-22T07:14:47.350Z,4.72
2023-01-22T07:19:41.066Z,3.78
2023-01-22T07:24:34.478Z,5.40
2023-01-22T07:29:27.470Z,5.53
2023-01-22T07:34:21.491Z,5.05
2023-01-22T07:39:15.035Z,4.80
2023-01-22T07:44:09.090Z,5.00
2023-01-22T07:49:02.136Z,5.05
2023-01-22T07:53:56.676Z,4.88
2023-01-22T07:58:50.274Z,4.07
2023-01-22T08:03:43.827Z,4.75
2023-01-22T08:08:38.346Z,5.18
2023-01-22T08:13:31.936Z,4.20
2023-01-22T08:18:25.115Z,4.53
2023-01-22T08:23:19.852Z,4.57
2023-01-22T08:28:15.477Z,4.57
2023-01-22T08:33:09.897Z,4.50
2023-01-22T08:38:04.244Z,4.35
2023-01-22T08:42:57.893Z,4.63
2023-01-22T08:47:51.957Z,3.65
2023-01-22T08:52:45.599Z,3.35
2023-01-22T08:57:39.856Z,2.97
2023-01-22T09:02:33.423Z,3.00
2023-01-22T09:07:26.490Z,3.33
2023-01-22T09:12:20.084Z,2.90
2023-01-22T09:17:13.801Z,2.75
2023-01-22T09:22:11.600Z,3.35
2023-01-22T09:27:05.579Z,3.40
2023-01-22T09:31:58.815Z,2.85
2023-01-22T09:36:51.714Z,4.32
2023-01-22T09:41:50.090Z,4.10
2023-01-22T09:46:57.228Z,3.58
2023-01-22T09:51:59.751Z,3.13
2023-01-22T09:56:54.488Z,2.97
2023-01-22T10:01:54.103Z,3.75
2023-01-22T10:06:48.653Z,3.00
2023-01-22T10:11:41.851Z,4.25
2023-01-22T10:16:36.191Z,3.58
2023-01-22T10:21:40.039Z,3.60
2023-01-22T10:26:44.371Z,3.10
2023-01-22T10:31:41.235Z,4.60
2023-01-22T10:36:34.761Z,3.15
2023-01-22T10:41:31.110Z,3.13
2023-01-22T10:46:27.073Z,3.70
2023-01-22T10:51:24.848Z,3.90
2023-01-22T10:56:31.402Z,8.75
2023-01-22T11:01:36.812Z,5.50
2023-01-22T11:06:38.125Z,7.55
2023-01-22T11:11:38.779Z,8.00
2023-01-22T11:16:35.754Z,10.88
2023-01-22T11:21:50.380Z,3.10
2023-01-22T11:27:01.718Z,3.67
2023-01-22T11:32:25.932Z,3.80
2023-01-22T11:37:22.589Z,5.03
2023-01-22T11:42:41.596Z,3.42
2023-01-22T11:47:56.808Z,7.63
2023-01-22T11:52:57.211Z,5.40
2023-01-22T11:58:21.955Z,5.10
2023-01-22T12:03:57.212Z,3.92
2023-01-22T12:09:15.073Z,3.42
2023-01-22T12:14:52.714Z,2.85
2023-01-22T12:20:04.464Z,3.58
2023-01-22T12:25:02.732Z,3.10
2023-01-22T12:30:24.983Z,3.90
2023-01-22T12:35:21.910Z,3.53
2023-01-22T12:40:27.202Z,3.13
2023-01-22T12:45:39.571Z,3.72
2023-01-22T12:50:32.584Z,2.35
2023-01-22T12:55:33.071Z,4.43
2023-01-22T13:00:39.344Z,3.83
2023-01-22T13:05:31.757Z,5.00
2023-01-22T13:10:31.475Z,3.28
2023-01-22T13:15:38.042Z,3.70
2023-01-22T13:20:37.273Z,4.55
2023-01-22T13:25:33.008Z,3.22
2023-01-22T13:30:29.020Z,4.43
2023-01-22T13:35:22.735Z,3.28
2023-01-22T13:40:25.177Z,2.78
2023-01-22T13:45:28.811Z,4.10
2023-01-22T13:50:23.066Z,3.17
2023-01-22T13:55:19.560Z,6.20
2023-01-22T14:00:33.065Z,5.97
2023-01-22T14:05:29.512Z,5.45
2023-01-22T14:10:26.972Z,5.15
2023-01-22T14:15:21.769Z,5.90
2023-01-22T14:20:16.188Z,6.65
2023-01-22T14:25:11.834Z,6.55
2023-01-22T14:30:05.541Z,8.65
2023-01-22T14:34:59.832Z,6.40
2023-01-22T14:39:54.058Z,7.43
2023-01-22T14:44:47.373Z,7.15
2023-01-22T14:49:40.751Z,8.30
2023-01-22T14:54:34.201Z,13.50
2023-01-22T14:59:27.911Z,8.85
2023-01-22T15:04:21.458Z,9.70
2023-01-22T15:09:14.972Z,8.80
2023-01-22T15:14:09.576Z,7.25
2023-01-22T15:19:03.822Z,7.00
2023-01-22T15:23:57.858Z,6.50
2023-01-22T15:28:51.255Z,5.50
2023-01-22T15:33:44.474Z,5.75
2023-01-22T15:38:38.797Z,5.13
2023-01-22T15:43:32.451Z,5.88
2023-01-22T15:48:26.827Z,5.43
2023-01-22T15:53:21.076Z,5.55
2023-01-22T15:58:15.561Z,5.43
2023-01-22T16:03:08.906Z,5.95
2023-01-22T16:08:01.520Z,4.93
2023-01-22T16:12:56.009Z,5.30
2023-01-22T16:17:50.505Z,6.22
2023-01-22T16:22:45.991Z,5.47
2023-01-22T16:27:39.447Z,5.35
2023-01-22T16:32:33.188Z,5.00
2023-01-22T16:37:25.861Z,5.15
2023-01-22T16:42:19.256Z,19.88
2023-01-22T16:47:12.471Z,14.32
2023-01-22T16:52:21.538Z,34.22
2023-01-22T16:57:20.137Z,5.85
2023-01-22T17:02:15.886Z,5.90
2023-01-22T17:07:17.773Z,6.70
2023-01-22T17:12:20.408Z,5.47
2023-01-22T17:17:13.987Z,6.65
2023-01-22T17:22:06.862Z,7.35
2023-01-22T17:27:03.355Z,9.00
2023-01-22T17:31:57.987Z,9.98
2023-01-22T17:36:52.346Z,9.13
2023-01-22T17:41:45.327Z,9.75
2023-01-22T17:46:38.689Z,9.30
2023-01-22T17:51:33.320Z,8.15
2023-01-22T17:56:30.921Z,7.43
2023-01-22T18:01:30.809Z,6.88
2023-01-22T18:06:24.626Z,7.93
2023-01-22T18:11:20.988Z,12.43
2023-01-22T18:16:16.943Z,10.90
2023-01-22T18:21:16.989Z,9.43
2023-01-22T18:26:11.051Z,9.05
2023-01-22T18:31:13.344Z,7.32
2023-01-22T18:36:11.470Z,6.80
2023-01-22T18:41:10.671Z,7.03
2023-01-22T18:46:07.296Z,7.32
2023-01-22T18:51:00.664Z,7.93
2023-01-22T18:55:54.413Z,7.03
2023-01-22T19:00:47.780Z,8.48
2023-01-22T19:05:41.273Z,8.57
2023-01-22T19:10:34.927Z,8.43
2023-01-22T19:15:28.889Z,6.85
2023-01-22T19:20:22.265Z,6.88
2023-01-22T19:25:16.929Z,7.47
2023-01-22T19:30:13.421Z,7.97
2023-01-22T19:35:08.928Z,6.55
2023-01-22T19:40:02.920Z,7.82
2023-01-22T19:44:56.501Z,8.00
2023-01-22T19:49:50.141Z,7.60
2023-01-22T19:54:48.776Z,7.00
2023-01-22T19:59:43.122Z,7.83
2023-01-22T20:04:36.908Z,8.43
2023-01-22T20:09:31.902Z,8.43
2023-01-22T20:14:30.151Z,8.82
2023-01-22T20:19:23.031Z,9.38
2023-01-22T20:24:17.746Z,8.73
2023-01-22T20:29:12.940Z,9.85
2023-01-22T20:34:06.447Z,10.63
2023-01-22T20:39:02.336Z,8.88
2023-01-22T20:43:56.536Z,8.00
2023-01-22T20:48:49.995Z,6.97
2023-01-22T20:53:44.053Z,6.82
2023-01-22T20:58:38.842Z,9.00
2023-01-22T21:03:32.194Z,9.43
2023-01-22T21:08:26.123Z,8.00
2023-01-22T21:13:19.507Z,6.75
2023-01-22T21:18:13.556Z,7.85
2023-01-22T21:23:07.390Z,7.18
2023-01-22T21:28:02.292Z,8.25
2023-01-22T21:32:56.381Z,7.18
2023-01-22T21:37:50.220Z,7.68
2023-01-22T21:43:02.298Z,7.65
2023-01-22T21:47:55.991Z,6.03
2023-01-22T21:52:54.727Z,7.03
2023-01-22T21:57:49.071Z,7.35
2023-01-22T22:02:42.189Z,6.47
2023-01-22T22:07:35.862Z,7.47
2023-01-22T22:12:32.067Z,8.05
2023-01-22T22:17:27.190Z,7.78
2023-01-22T22:22:21.736Z,7.88
2023-01-22T22:27:16.917Z,7.38
2023-01-22T22:32:10.619Z,7.65
2023-01-22T22:37:04.318Z,7.28
2023-01-22T22:41:58.665Z,6.93
2023-01-22T22:46:52.308Z,7.15
2023-01-22T22:51:49.676Z,6.78
2023-01-22T22:56:44.570Z,7.90
2023-01-22T23:01:38.479Z,7.68
2023-01-22T23:06:35.014Z,7.90
2023-01-22T23:11:36.154Z,8.15
2023-01-22T23:16:55.629Z,7.45
2023-01-22T23:22:11.490Z,6.95
2023-01-22T23:27:05.673Z,7.28
2023-01-22T23:31:59.495Z,7.65
2023-01-22T23:36:53.729Z,7.00
2023-01-22T23:41:46.884Z,7.57
2023-01-22T23:46:40.779Z,7.82
2023-01-22T23:51:34.221Z,7.65
2023-01-22T23:56:32.691Z,7.22
